Accueil
METAR-TAF:

METAR-TAF

Aéroports :

Aéroport de Deauville-Normandie

Deauville, France

latitude: 49-21-55N, longitude: 000-09-16E, altitude: 146 m

Observation

Le bulletin a été fait il y a 32 minutes, à 05:30 UTC
Vent 8 kt de sud
Température 5°C
Humidité 75%
Pression 1025 hPa
Visibilité 10 km ou plus
pas de nuages en-dessous de 1500 mètres et pas de cumulonimbus.

METAR: LFRG 160530Z AUTO 19008KT CAVOK 05/01 Q1025 NOSIG

Heure: 07:02 (06:02 UTC)

Prévision

Le bulletin a été fait il y a 1 heure et 2 minutes, à 05:00 UTC
Prévision valable du 16 à 06 UTC au 16 à 15 UTC
Vent 5 kt de sud
Visibilité 10 km ou plus
pas de nuages en-dessous de 1500 mètres et pas de cumulonimbus.

TAF: LFRG 160500Z 1606/1615 18005KT CAVOK

Observations et prévisions météorologiques de plus de 4000 aéroports (messages METAR et TAF).

Les stations disponibles sont représentées par des disques jaunes et rouges sur la carte.

Passer la souris dessus pour voir le nom de la station.

Cliquer dessus pour voir les observations et prévisions météorologiques.

Pour changer de carte: cliquez sur les boutons verts avec une croix noire pour zoomer, sur le bouton vert avec un tiret pour effectuer un zoom arrière, ou sur les flèches vertes pour les cartes adjacentes.


METAR-TAF: